Time;durP1;ratioP1;P1;durP2;ratioP2;P2;SDS_P1;SDS_P2;PMS_P1;PMS_P2;Temp;Humidity;BMP_temperature;BMP_pressure;BME280_temperature;BME280_humidity;BME280_pressure;Samples;Min_cycle;Max_cycle;Signal;HPM_P1;HPM_P2
2021/06/16 00:01:59;;;;;;;9.95;7.60;;;;;;;;;;1903474;75;20519;-77
2021/06/16 00:04:26;;;;;;;11.88;7.53;;;;;;;;;;1903686;75;20089;-77
2021/06/16 00:06:55;;;;;;;10.95;7.38;;;;;;;;;;1903368;75;20486;-77
2021/06/16 00:09:22;;;;;;;10.50;7.32;;;;;;;;;;1903367;75;20404;-76
2021/06/16 00:11:49;;;;;;;10.20;7.25;;;;;;;;;;1902282;75;20125;-76
2021/06/16 00:14:16;;;;;;;10.23;6.63;;;;;;;;;;1903492;75;20463;-77
2021/06/16 00:16:43;;;;;;;12.38;6.95;;;;;;;;;;1903583;75;20654;-77
2021/06/16 00:19:11;;;;;;;12.85;7.47;;;;;;;;;;1903310;75;20503;-77
2021/06/16 00:21:38;;;;;;;13.82;7.25;;;;;;;;;;1902957;75;20093;-77
2021/06/16 00:24:05;;;;;;;8.50;6.45;;;;;;;;;;1902878;75;20093;-77
2021/06/16 00:26:32;;;;;;;10.85;6.90;;;;;;;;;;1903109;75;20152;-77
2021/06/16 00:28:58;;;;;;;8.55;6.30;;;;;;;;;;1903639;75;20148;-77
2021/06/16 00:31:25;;;;;;;9.88;6.82;;;;;;;;;;1903789;75;20139;-77
2021/06/16 00:33:52;;;;;;;8.65;6.18;;;;;;;;;;1903988;75;20094;-77
2021/06/16 00:36:20;;;;;;;9.32;6.20;;;;;;;;;;1903566;75;20089;-77
2021/06/16 00:38:47;;;;;;;10.38;6.10;;;;;;;;;;1903548;75;20173;-78
2021/06/16 00:41:14;;;;;;;8.93;5.93;;;;;;;;;;1903567;75;20163;-77
2021/06/16 00:43:40;;;;;;;9.63;6.50;;;;;;;;;;1903322;75;20113;-77
2021/06/16 00:46:07;;;;;;;8.93;5.75;;;;;;;;;;1903391;75;20102;-77
2021/06/16 00:48:34;;;;;;;11.85;6.15;;;;;;;;;;1903194;75;20097;-76
2021/06/16 00:51:00;;;;;;;8.02;5.53;;;;;;;;;;1903509;75;20089;-77
2021/06/16 00:53:29;;;;;;;9.35;6.45;;;;;;;;;;1903671;75;20562;-76
2021/06/16 00:55:55;;;;;;;11.02;6.10;;;;;;;;;;1903730;75;20116;-77
2021/06/16 00:58:23;;;;;;;8.93;5.32;;;;;;;;;;1903603;75;20585;-77
2021/06/16 01:00:54;;;;;;;7.70;5.43;;;;;;;;;;1903831;75;20519;-77
2021/06/16 01:03:26;;;;;;;7.60;5.00;;;;;;;;;;1903838;75;20086;-78
2021/06/16 01:05:59;;;;;;;7.55;5.03;;;;;;;;;;1903720;75;20082;-77
2021/06/16 01:08:30;;;;;;;8.70;5.15;;;;;;;;;;1903655;75;20424;-77
2021/06/16 01:11:02;;;;;;;8.52;5.55;;;;;;;;;;1904029;75;20144;-77
2021/06/16 01:13:32;;;;;;;9.68;5.53;;;;;;;;;;1903726;75;20570;-77
2021/06/16 01:16:06;;;;;;;8.07;6.10;;;;;;;;;;1903692;75;20570;-77
2021/06/16 01:18:38;;;;;;;7.05;5.75;;;;;;;;;;1903712;75;20124;-78
2021/06/16 01:24:12;;;;;;;11.00;6.10;;;;;;;;;;1905567;67;20084;-82
2021/06/16 01:26:50;;;;;;;8.80;6.20;;;;;;;;;;1907389;75;20477;-82
2021/06/16 01:29:34;;;;;;;9.05;6.63;;;;;;;;;;1907097;75;20092;-82
2021/06/16 01:32:12;;;;;;;10.10;6.70;;;;;;;;;;1906968;75;20124;-82
2021/06/16 01:34:39;;;;;;;9.68;6.93;;;;;;;;;;1907159;75;20093;-82
2021/06/16 01:40:07;;;;;;;9.30;6.65;;;;;;;;;;1906078;75;20088;-81
2021/06/16 01:49:24;;;;;;;11.90;6.55;;;;;;;;;;1906957;75;20088;-81
2021/06/16 01:52:21;;;;;;;10.90;6.35;;;;;;;;;;1906919;75;20534;-81
2021/06/16 01:54:50;;;;;;;9.85;6.53;;;;;;;;;;1904544;75;20148;-83
2021/06/16 01:57:25;;;;;;;11.27;6.90;;;;;;;;;;1907170;75;20112;-81
2021/06/16 02:00:01;;;;;;;8.95;6.45;;;;;;;;;;1906371;75;20092;-81
2021/06/16 02:02:50;;;;;;;10.90;7.00;;;;;;;;;;1906377;75;20097;-82
2021/06/16 02:05:25;;;;;;;12.05;7.97;;;;;;;;;;1906895;75;20093;-82
2021/06/16 02:08:03;;;;;;;12.93;8.82;;;;;;;;;;1907153;75;20279;-82
2021/06/16 02:13:34;;;;;;;11.70;7.75;;;;;;;;;;1906455;75;20426;-82
2021/06/16 02:16:08;;;;;;;9.15;7.35;;;;;;;;;;1906901;75;20089;-82
2021/06/16 02:18:41;;;;;;;10.65;7.88;;;;;;;;;;1906927;75;20123;-82
2021/06/16 02:21:10;;;;;;;11.80;7.25;;;;;;;;;;1906607;75;20105;-82
2021/06/16 02:23:43;;;;;;;9.95;7.45;;;;;;;;;;1907142;67;20104;-82
2021/06/16 02:26:12;;;;;;;10.43;7.00;;;;;;;;;;1906930;75;20093;-82
2021/06/16 02:28:39;;;;;;;12.57;7.75;;;;;;;;;;1906692;75;20124;-82
2021/06/16 02:31:06;;;;;;;10.45;6.88;;;;;;;;;;1905700;75;20089;-84
2021/06/16 02:33:33;;;;;;;8.80;6.75;;;;;;;;;;1905138;75;20108;-83
2021/06/16 02:36:02;;;;;;;9.50;7.35;;;;;;;;;;1905107;75;20151;-84
2021/06/16 02:38:36;;;;;;;8.88;6.57;;;;;;;;;;1905195;75;20368;-83
2021/06/16 02:41:15;;;;;;;9.68;6.57;;;;;;;;;;1905272;75;20100;-84
2021/06/16 02:43:51;;;;;;;8.85;6.15;;;;;;;;;;1905185;75;20204;-83
2021/06/16 02:46:19;;;;;;;8.35;6.47;;;;;;;;;;1905412;75;20372;-83
2021/06/16 02:48:54;;;;;;;8.35;6.10;;;;;;;;;;1905368;75;20093;-84
2021/06/16 02:51:25;;;;;;;8.00;6.15;;;;;;;;;;1905510;75;20112;-81
2021/06/16 02:53:56;;;;;;;8.38;5.68;;;;;;;;;;1910875;75;20097;-83
2021/06/16 02:56:25;;;;;;;11.02;6.20;;;;;;;;;;1912149;75;20089;-83
2021/06/16 02:58:54;;;;;;;8.43;5.70;;;;;;;;;;1906180;75;20122;-82
2021/06/16 03:01:25;;;;;;;9.63;5.97;;;;;;;;;;1906134;75;20534;-83
2021/06/16 03:03:53;;;;;;;7.05;5.28;;;;;;;;;;1905282;75;20253;-83
2021/06/16 03:06:23;;;;;;;7.53;5.75;;;;;;;;;;1904679;75;20085;-83
2021/06/16 03:09:04;;;;;;;9.73;6.40;;;;;;;;;;1905510;75;20126;-82
2021/06/16 03:11:36;;;;;;;7.68;5.47;;;;;;;;;;1905494;75;20093;-82
2021/06/16 03:14:04;;;;;;;8.38;5.82;;;;;;;;;;1905418;75;20088;-83
2021/06/16 03:16:35;;;;;;;7.50;5.05;;;;;;;;;;1905503;75;20092;-82
2021/06/16 03:19:06;;;;;;;8.07;5.80;;;;;;;;;;1905508;75;20119;-83
2021/06/16 03:21:42;;;;;;;8.48;5.00;;;;;;;;;;1905970;75;21019;-83
2021/06/16 03:24:16;;;;;;;7.60;4.85;;;;;;;;;;1906357;75;20093;-83
2021/06/16 03:26:49;;;;;;;7.10;4.60;;;;;;;;;;1906093;75;20084;-83
2021/06/16 03:29:22;;;;;;;6.43;4.97;;;;;;;;;;1906195;75;20085;-83
2021/06/16 03:31:53;;;;;;;7.18;4.88;;;;;;;;;;1906117;75;20558;-83
2021/06/16 03:34:20;;;;;;;9.05;4.82;;;;;;;;;;1905679;75;20129;-84
2021/06/16 03:37:04;;;;;;;7.97;4.88;;;;;;;;;;1905417;75;20085;-83
2021/06/16 03:39:37;;;;;;;7.68;4.65;;;;;;;;;;1905453;75;20390;-83
2021/06/16 03:42:14;;;;;;;6.57;5.07;;;;;;;;;;1906479;75;20101;-83
2021/06/16 03:44:41;;;;;;;6.70;4.53;;;;;;;;;;1905402;75;20435;-82
2021/06/16 03:47:10;;;;;;;8.35;5.38;;;;;;;;;;1904080;75;20136;-82
2021/06/16 03:49:40;;;;;;;8.38;5.60;;;;;;;;;;1904049;75;20442;-82
2021/06/16 03:52:10;;;;;;;8.57;5.07;;;;;;;;;;1903949;75;20152;-82
2021/06/16 03:54:39;;;;;;;;;;;;;;;;;;1904081;75;20096;-82
2021/06/16 03:57:08;;;;;;;7.13;5.07;;;;;;;;;;1904075;75;19964;-82
2021/06/16 03:59:36;;;;;;;7.57;4.85;;;;;;;;;;1904263;75;20089;-82
2021/06/16 04:02:03;;;;;;;8.80;4.70;;;;;;;;;;1905566;75;20085;-82
2021/06/16 04:04:32;;;;;;;7.40;4.75;;;;;;;;;;1905824;75;20179;-82
2021/06/16 04:07:00;;;;;;;6.63;4.68;;;;;;;;;;1906797;75;20120;-81
2021/06/16 04:12:11;;;;;;;5.97;4.47;;;;;;;;;;1906534;75;20096;-81
2021/06/16 04:14:40;;;;;;;8.93;4.63;;;;;;;;;;1906935;75;20115;-82
2021/06/16 04:17:07;;;;;;;7.30;4.55;;;;;;;;;;1907066;75;20093;-82
2021/06/16 04:19:34;;;;;;;9.18;5.30;;;;;;;;;;1906907;75;20093;-82
2021/06/16 04:22:02;;;;;;;9.18;4.97;;;;;;;;;;1906960;67;20135;-82
2021/06/16 04:24:39;;;;;;;9.48;6.05;;;;;;;;;;1906928;75;20093;-82
2021/06/16 04:27:08;;;;;;;7.47;5.22;;;;;;;;;;1906580;75;20136;-82
2021/06/16 04:29:35;;;;;;;9.45;5.78;;;;;;;;;;1906563;75;20146;-82
2021/06/16 04:32:04;;;;;;;7.53;5.15;;;;;;;;;;1906857;75;20089;-82
2021/06/16 04:34:40;;;;;;;9.32;5.70;;;;;;;;;;1903997;75;20403;-83
2021/06/16 04:37:10;;;;;;;8.45;5.75;;;;;;;;;;1907068;75;20104;-83
2021/06/16 04:39:40;;;;;;;8.15;5.35;;;;;;;;;;1906654;75;20511;-83
2021/06/16 04:42:09;;;;;;;8.45;5.85;;;;;;;;;;1906913;75;20125;-83
2021/06/16 04:44:38;;;;;;;9.43;5.55;;;;;;;;;;1904177;75;20372;-83
2021/06/16 04:47:07;;;;;;;7.53;5.25;;;;;;;;;;1906691;75;20450;-82
2021/06/16 04:49:35;;;;;;;17.88;5.95;;;;;;;;;;1906383;75;20147;-82
2021/06/16 04:52:02;;;;;;;11.25;6.00;;;;;;;;;;1906216;75;20096;-82
2021/06/16 04:54:30;;;;;;;15.80;6.50;;;;;;;;;;1906570;75;20085;-84
2021/06/16 04:57:12;;;;;;;8.93;6.22;;;;;;;;;;1906318;75;20085;-83
2021/06/16 04:59:39;;;;;;;9.05;6.30;;;;;;;;;;1906000;75;20099;-83
2021/06/16 05:02:06;;;;;;;8.85;5.88;;;;;;;;;;1906764;75;20149;-84
2021/06/16 05:04:33;;;;;;;11.20;7.45;;;;;;;;;;1907015;75;20147;-83
2021/06/16 05:07:00;;;;;;;8.30;6.18;;;;;;;;;;1907379;75;20092;-83
2021/06/16 05:09:26;;;;;;;10.05;6.90;;;;;;;;;;1907610;75;20124;-84
2021/06/16 05:11:53;;;;;;;10.23;6.55;;;;;;;;;;1907255;75;20092;-83
2021/06/16 05:14:23;;;;;;;8.57;6.28;;;;;;;;;;1907010;75;20097;-84
2021/06/16 05:16:50;;;;;;;11.30;6.60;;;;;;;;;;1905861;75;20089;-83
2021/06/16 05:19:19;;;;;;;10.07;6.50;;;;;;;;;;1905411;75;20368;-83
2021/06/16 05:21:47;;;;;;;11.25;6.68;;;;;;;;;;1907387;67;20088;-83
2021/06/16 05:24:14;;;;;;;11.63;6.13;;;;;;;;;;1905851;75;20477;-83
2021/06/16 05:26:41;;;;;;;12.20;6.28;;;;;;;;;;1906141;75;20446;-83
2021/06/16 05:29:09;;;;;;;9.35;6.45;;;;;;;;;;1905706;75;20093;-83
2021/06/16 05:31:38;;;;;;;12.05;6.30;;;;;;;;;;1906312;75;20101;-83
2021/06/16 05:34:06;;;;;;;10.63;6.38;;;;;;;;;;1905745;75;20093;-83
2021/06/16 05:36:33;;;;;;;10.52;6.53;;;;;;;;;;1907139;75;20116;-83
2021/06/16 05:39:00;;;;;;;10.60;6.72;;;;;;;;;;1912474;75;20082;-83
2021/06/16 05:41:27;;;;;;;10.13;7.25;;;;;;;;;;1912500;75;20081;-84
2021/06/16 05:43:56;;;;;;;12.63;6.82;;;;;;;;;;1912423;75;20112;-83
2021/06/16 05:46:24;;;;;;;8.50;6.65;;;;;;;;;;1912266;75;20084;-83
2021/06/16 05:48:52;;;;;;;11.45;6.95;;;;;;;;;;1912289;75;20085;-83
2021/06/16 05:51:20;;;;;;;9.38;6.80;;;;;;;;;;1910482;75;20531;-82
2021/06/16 05:53:47;;;;;;;9.50;6.40;;;;;;;;;;1906003;75;20088;-82
2021/06/16 05:56:13;;;;;;;9.98;7.20;;;;;;;;;;1906049;75;20093;-82
2021/06/16 05:58:40;;;;;;;10.00;6.53;;;;;;;;;;1906197;75;20155;-83
2021/06/16 06:01:07;;;;;;;11.60;6.55;;;;;;;;;;1905902;75;20089;-83
2021/06/16 06:03:36;;;;;;;12.43;6.97;;;;;;;;;;1905715;75;20155;-83
2021/06/16 06:06:14;;;;;;;12.75;5.88;;;;;;;;;;1905630;75;20089;-83
2021/06/16 06:08:50;;;;;;;9.68;6.22;;;;;;;;;;1905905;75;20144;-82
2021/06/16 06:14:37;;;;;;;11.18;5.95;;;;;;;;;;1906219;75;20093;-82
2021/06/16 06:17:52;;;;;;;11.25;6.30;;;;;;;;;;1906593;75;20117;-82
2021/06/16 06:20:19;;;;;;;12.70;6.43;;;;;;;;;;1906360;75;20161;-83
2021/06/16 06:22:47;;;;;;;11.63;6.15;;;;;;;;;;1908468;67;20089;-83
2021/06/16 06:25:14;;;;;;;11.23;6.15;;;;;;;;;;1906465;75;20096;-82
2021/06/16 06:27:41;;;;;;;12.13;6.53;;;;;;;;;;1906947;75;20088;-83
2021/06/16 06:30:09;;;;;;;7.82;5.45;;;;;;;;;;1907237;75;20093;-83
2021/06/16 06:32:39;;;;;;;10.73;5.82;;;;;;;;;;1906820;75;20089;-84
2021/06/16 06:35:10;;;;;;;10.75;6.78;;;;;;;;;;1908527;75;20144;-84
2021/06/16 06:38:03;;;;;;;12.68;6.18;;;;;;;;;;1908107;75;20093;-83
2021/06/16 06:43:39;;;;;;;11.68;6.35;;;;;;;;;;1899696;75;20104;-84
2021/06/16 06:46:13;;;;;;;14.23;6.57;;;;;;;;;;1900210;75;20517;-84
2021/06/16 06:48:40;;;;;;;14.95;6.53;;;;;;;;;;1900108;75;20439;-83
2021/06/16 06:51:07;;;;;;;13.10;7.45;;;;;;;;;;1899452;75;20093;-83
2021/06/16 06:53:35;;;;;;;16.85;8.00;;;;;;;;;;1905526;75;20093;-83
2021/06/16 06:56:12;;;;;;;11.45;7.07;;;;;;;;;;1905947;75;20119;-83
2021/06/16 06:58:39;;;;;;;13.48;5.90;;;;;;;;;;1906381;75;20130;-82
2021/06/16 07:01:12;;;;;;;9.90;5.53;;;;;;;;;;1904530;75;20100;-84
2021/06/16 07:03:39;;;;;;;10.55;6.22;;;;;;;;;;1905617;75;20131;-84
2021/06/16 07:06:06;;;;;;;9.20;5.53;;;;;;;;;;1905647;75;20489;-82
2021/06/16 07:08:33;;;;;;;9.73;6.22;;;;;;;;;;1905817;75;20143;-83
2021/06/16 07:11:02;;;;;;;13.70;5.63;;;;;;;;;;1925639;56;20416;-83
2021/06/16 07:13:30;;;;;;;12.25;7.00;;;;;;;;;;1902510;75;20097;-82
2021/06/16 07:15:57;;;;;;;9.65;5.07;;;;;;;;;;1902255;75;20093;-83
2021/06/16 07:18:23;;;;;;;10.60;5.20;;;;;;;;;;1902178;75;20152;-83
2021/06/16 07:20:50;;;;;;;10.75;7.63;;;;;;;;;;1903403;62;20140;-78
2021/06/16 07:23:17;;;;;;;14.25;9.05;;;;;;;;;;1904163;75;20667;-78
2021/06/16 07:25:43;;;;;;;11.63;5.95;;;;;;;;;;1903948;75;20093;-76
2021/06/16 07:28:10;;;;;;;10.35;5.63;;;;;;;;;;1904253;75;20567;-78
2021/06/16 07:30:38;;;;;;;6.68;4.93;;;;;;;;;;1903622;75;20104;-76
2021/06/16 07:33:05;;;;;;;7.60;4.00;;;;;;;;;;1904260;75;20152;-79
2021/06/16 07:35:32;;;;;;;7.38;4.10;;;;;;;;;;1904378;75;20132;-77
2021/06/16 07:37:59;;;;;;;10.45;4.88;;;;;;;;;;1904243;75;20089;-76
2021/06/16 07:40:26;;;;;;;8.27;4.65;;;;;;;;;;1903981;75;20097;-75
2021/06/16 07:42:52;;;;;;;6.75;4.15;;;;;;;;;;1904293;75;20097;-77
2021/06/16 07:45:19;;;;;;;8.48;4.18;;;;;;;;;;1904143;75;20511;-78
2021/06/16 07:47:47;;;;;;;5.53;3.30;;;;;;;;;;1903891;75;20806;-76
2021/06/16 07:50:14;;;;;;;5.90;4.10;;;;;;;;;;1903666;75;20090;-77
2021/06/16 07:52:41;;;;;;;6.32;4.38;;;;;;;;;;1903463;75;20100;-76
2021/06/16 07:55:10;;;;;;;11.18;5.55;;;;;;;;;;1904201;75;20111;-76
2021/06/16 07:57:37;;;;;;;7.80;4.28;;;;;;;;;;1904150;75;20093;-76
2021/06/16 08:00:06;;;;;;;6.95;3.97;;;;;;;;;;1904338;75;20085;-77
2021/06/16 08:02:33;;;;;;;8.38;5.38;;;;;;;;;;1903965;75;20101;-77
2021/06/16 08:05:01;;;;;;;8.32;4.25;;;;;;;;;;1904483;75;20148;-78
2021/06/16 08:07:27;;;;;;;7.38;4.10;;;;;;;;;;1904205;75;20094;-77
2021/06/16 08:09:54;;;;;;;7.18;4.05;;;;;;;;;;1903874;75;20093;-77
2021/06/16 08:12:21;;;;;;;4.88;3.95;;;;;;;;;;1904438;75;20144;-77
2021/06/16 08:14:48;;;;;;;6.15;3.92;;;;;;;;;;1904311;75;20574;-78
2021/06/16 08:17:15;;;;;;;6.88;3.78;;;;;;;;;;1904242;75;20148;-77
2021/06/16 08:19:44;;;;;;;5.95;3.30;;;;;;;;;;1898591;75;20583;-76
2021/06/16 08:22:14;;;;;;;9.05;4.43;;;;;;;;;;1904359;75;20581;-78
2021/06/16 08:24:42;;;;;;;9.43;3.95;;;;;;;;;;1905106;75;20105;-78
2021/06/16 08:27:09;;;;;;;6.00;3.90;;;;;;;;;;1905172;67;20102;-78
2021/06/16 08:29:37;;;;;;;7.50;3.47;;;;;;;;;;1904292;75;20090;-78
2021/06/16 08:32:04;;;;;;;6.10;4.25;;;;;;;;;;1904399;75;20474;-77
2021/06/16 08:34:31;;;;;;;8.40;4.20;;;;;;;;;;1904348;75;20185;-77
2021/06/16 08:36:58;;;;;;;6.63;4.05;;;;;;;;;;1904004;75;20597;-77
2021/06/16 08:39:26;;;;;;;7.30;3.90;;;;;;;;;;1906743;75;20082;-78
2021/06/16 08:41:53;;;;;;;7.22;4.50;;;;;;;;;;1906434;75;20731;-77
2021/06/16 08:44:21;;;;;;;5.70;3.38;;;;;;;;;;1906533;75;20097;-76
2021/06/16 08:46:48;;;;;;;7.13;3.20;;;;;;;;;;1903556;75;20121;-78
2021/06/16 08:49:15;;;;;;;4.65;3.00;;;;;;;;;;1902152;75;20104;-78
2021/06/16 08:51:42;;;;;;;7.22;3.53;;;;;;;;;;1903554;75;20089;-78
2021/06/16 08:54:09;;;;;;;6.75;3.20;;;;;;;;;;1903863;75;20093;-76
2021/06/16 08:56:40;;;;;;;4.85;3.10;;;;;;;;;;1904069;75;20095;-77
2021/06/16 08:59:07;;;;;;;5.68;3.10;;;;;;;;;;1903624;75;20119;-78
2021/06/16 09:01:34;;;;;;;4.13;2.92;;;;;;;;;;1903285;75;20128;-77
2021/06/16 09:04:01;;;;;;;6.72;3.05;;;;;;;;;;1903907;75;20116;-77
2021/06/16 09:06:29;;;;;;;7.57;3.40;;;;;;;;;;1903879;75;20108;-79
2021/06/16 09:09:01;;;;;;;6.07;3.20;;;;;;;;;;1903901;75;20089;-77
2021/06/16 09:11:32;;;;;;;5.88;3.60;;;;;;;;;;1902679;75;20093;-77
2021/06/16 09:14:14;;;;;;;8.55;4.10;;;;;;;;;;1902896;75;20152;-76
2021/06/16 09:16:42;;;;;;;6.78;4.57;;;;;;;;;;1902315;75;20085;-76
2021/06/16 09:19:23;;;;;;;5.55;3.33;;;;;;;;;;1902617;75;20089;-75
2021/06/16 09:21:57;;;;;;;8.63;4.63;;;;;;;;;;1902025;75;20129;-76
2021/06/16 09:24:24;;;;;;;8.98;7.03;;;;;;;;;;1902509;75;20097;-77
2021/06/16 09:26:51;;;;;;;8.95;6.20;;;;;;;;;;1903589;67;20590;-75
2021/06/16 09:29:29;;;;;;;9.57;6.68;;;;;;;;;;1902662;75;20120;-76
2021/06/16 09:32:03;;;;;;;6.00;4.35;;;;;;;;;;1901886;75;20153;-76
2021/06/16 09:34:30;;;;;;;5.30;3.65;;;;;;;;;;1902084;75;20428;-75
2021/06/16 09:36:58;;;;;;;9.52;3.88;;;;;;;;;;1902011;75;20093;-76
2021/06/16 09:39:26;;;;;;;6.18;3.60;;;;;;;;;;1901903;75;20101;-76
2021/06/16 09:41:55;;;;;;;6.13;3.78;;;;;;;;;;1901820;75;20089;-76
2021/06/16 09:44:43;;;;;;;6.85;3.55;;;;;;;;;;1902059;75;20550;-75
2021/06/16 09:47:11;;;;;;;5.97;3.40;;;;;;;;;;1902058;75;20141;-76
2021/06/16 09:49:55;;;;;;;5.18;3.53;;;;;;;;;;1902236;75;20098;-76
2021/06/16 09:52:30;;;;;;;5.57;3.58;;;;;;;;;;1901687;75;20168;-77
2021/06/16 09:54:57;;;;;;;5.13;3.15;;;;;;;;;;1902063;75;20555;-78
2021/06/16 09:57:23;;;;;;;14.90;10.18;;;;;;;;;;1902014;75;20508;-77
2021/06/16 09:59:58;;;;;;;10.27;6.00;;;;;;;;;;1902119;75;20089;-77
2021/06/16 10:02:29;;;;;;;6.05;3.70;;;;;;;;;;1901837;75;20113;-74
2021/06/16 10:04:57;;;;;;;7.28;3.58;;;;;;;;;;1901818;75;20148;-77
2021/06/16 10:07:25;;;;;;;6.43;3.50;;;;;;;;;;1902564;75;20101;-76
2021/06/16 10:09:57;;;;;;;7.30;3.90;;;;;;;;;;1902125;75;20152;-77
2021/06/16 10:12:27;;;;;;;10.05;3.55;;;;;;;;;;1899166;75;20197;-77
2021/06/16 10:14:55;;;;;;;;;;;;;;;;;;1899625;75;20156;-77
2021/06/16 10:17:22;;;;;;;6.43;3.70;;;;;;;;;;1899543;75;20020;-75
2021/06/16 10:19:50;;;;;;;6.38;4.05;;;;;;;;;;1898941;75;20093;-78
2021/06/16 10:22:18;;;;;;;5.65;3.50;;;;;;;;;;1898907;75;20121;-77
2021/06/16 10:24:45;;;;;;;5.72;3.80;;;;;;;;;;1899234;75;20105;-75
2021/06/16 10:27:16;;;;;;;6.22;3.50;;;;;;;;;;1901010;67;20090;-76
2021/06/16 10:29:45;;;;;;;6.38;3.83;;;;;;;;;;1899479;75;20168;-77
2021/06/16 10:32:14;;;;;;;9.18;6.45;;;;;;;;;;1900253;75;20093;-77
2021/06/16 10:34:58;;;;;;;6.15;4.18;;;;;;;;;;1899851;75;20117;-79
2021/06/16 10:37:27;;;;;;;4.95;3.40;;;;;;;;;;1900244;75;20093;-78
2021/06/16 10:40:33;;;;;;;6.13;3.83;;;;;;;;;;1901750;75;20160;-77
2021/06/16 10:43:28;;;;;;;7.97;4.60;;;;;;;;;;1904418;75;20094;-81
2021/06/16 10:46:00;;;;;;;5.97;4.30;;;;;;;;;;1906999;75;20676;-77
2021/06/16 10:49:01;;;;;;;7.28;3.75;;;;;;;;;;1907642;75;20097;-80
2021/06/16 10:51:45;;;;;;;4.40;3.20;;;;;;;;;;1905496;75;20085;-80
2021/06/16 10:54:21;;;;;;;6.07;3.67;;;;;;;;;;1905565;75;20101;-81
2021/06/16 10:56:49;;;;;;;7.20;3.47;;;;;;;;;;1905720;75;20093;-77
2021/06/16 10:59:36;;;;;;;6.97;3.22;;;;;;;;;;1906477;75;20097;-78
2021/06/16 11:02:03;;;;;;;6.32;3.60;;;;;;;;;;1906940;75;20085;-77
2021/06/16 11:04:32;;;;;;;7.43;3.45;;;;;;;;;;1906067;75;20148;-78
2021/06/16 11:06:59;;;;;;;7.68;3.42;;;;;;;;;;1896567;76;20090;-78
2021/06/16 11:09:51;;;;;;;4.65;3.10;;;;;;;;;;1902783;75;20136;-81
2021/06/16 11:12:28;;;;;;;5.90;3.67;;;;;;;;;;1905288;75;20089;-80
2021/06/16 11:14:56;;;;;;;8.23;4.18;;;;;;;;;;1905569;75;20104;-79
2021/06/16 11:17:48;;;;;;;5.28;2.92;;;;;;;;;;1902855;75;20093;-81
2021/06/16 11:20:24;;;;;;;4.72;2.80;;;;;;;;;;1905071;75;20098;-78
2021/06/16 11:22:54;;;;;;;7.53;3.78;;;;;;;;;;1905004;75;20200;-77
2021/06/16 11:25:34;;;;;;;10.25;5.95;;;;;;;;;;1907228;67;20097;-79
2021/06/16 11:28:08;;;;;;;5.70;3.30;;;;;;;;;;1904481;75;20089;-79
2021/06/16 11:30:43;;;;;;;5.07;3.15;;;;;;;;;;1905580;75;20093;-80
2021/06/16 11:33:50;;;;;;;5.45;3.40;;;;;;;;;;1905817;75;20089;-78
2021/06/16 11:36:27;;;;;;;4.68;3.15;;;;;;;;;;1905518;75;20089;-80
2021/06/16 11:38:59;;;;;;;7.55;4.55;;;;;;;;;;1905766;75;20100;-78
2021/06/16 11:41:27;;;;;;;5.93;3.58;;;;;;;;;;1901886;75;20090;-78
2021/06/16 11:43:56;;;;;;;4.72;3.10;;;;;;;;;;1904528;75;20089;-78
2021/06/16 11:46:29;;;;;;;4.43;2.80;;;;;;;;;;1905533;75;20097;-79
2021/06/16 11:49:04;;;;;;;3.95;2.65;;;;;;;;;;1905776;75;20097;-81
2021/06/16 11:51:35;;;;;;;4.00;2.83;;;;;;;;;;1905443;75;20152;-79
2021/06/16 11:54:25;;;;;;;3.90;2.70;;;;;;;;;;1905834;75;20093;-77
2021/06/16 11:56:55;;;;;;;4.13;2.80;;;;;;;;;;1905627;75;20587;-80
2021/06/16 11:59:39;;;;;;;3.65;2.53;;;;;;;;;;1906116;75;20085;-78
2021/06/16 12:02:11;;;;;;;7.05;3.72;;;;;;;;;;1905782;75;20092;-80
2021/06/16 12:04:49;;;;;;;6.60;3.20;;;;;;;;;;1905742;75;20085;-80
2021/06/16 12:07:23;;;;;;;5.80;2.90;;;;;;;;;;1905763;75;20097;-77
2021/06/16 12:09:51;;;;;;;4.25;2.60;;;;;;;;;;1905616;75;20093;-79
2021/06/16 12:12:18;;;;;;;10.32;3.22;;;;;;;;;;1906231;75;20116;-77
2021/06/16 12:14:45;;;;;;;6.20;2.55;;;;;;;;;;1907986;75;20089;-80
2021/06/16 12:17:12;;;;;;;4.55;2.55;;;;;;;;;;1908237;75;20672;-78
2021/06/16 12:19:40;;;;;;;4.80;2.83;;;;;;;;;;1907469;75;20142;-77
2021/06/16 12:22:09;;;;;;;5.95;2.80;;;;;;;;;;1906763;75;20140;-79
2021/06/16 12:24:39;;;;;;;5.47;2.97;;;;;;;;;;1906114;75;20120;-78
2021/06/16 12:27:09;;;;;;;6.05;3.53;;;;;;;;;;1906637;67;20307;-78
2021/06/16 12:29:44;;;;;;;6.07;3.08;;;;;;;;;;1902787;75;20093;-78
2021/06/16 12:32:11;;;;;;;3.95;2.78;;;;;;;;;;1905012;75;20144;-78
2021/06/16 12:34:55;;;;;;;5.72;3.60;;;;;;;;;;1906171;75;20129;-79
2021/06/16 12:37:22;;;;;;;4.95;3.17;;;;;;;;;;1906583;75;20078;-80
2021/06/16 12:40:07;;;;;;;5.35;2.75;;;;;;;;;;1906473;75;20185;-79
2021/06/16 12:42:38;;;;;;;4.18;2.72;;;;;;;;;;1905937;75;20116;-79
2021/06/16 12:45:26;;;;;;;4.05;2.75;;;;;;;;;;1906375;75;20093;-80
2021/06/16 12:47:54;;;;;;;5.88;3.00;;;;;;;;;;1906485;75;20141;-80
2021/06/16 12:50:29;;;;;;;3.35;2.20;;;;;;;;;;1906078;75;20132;-79
2021/06/16 12:52:56;;;;;;;3.53;2.30;;;;;;;;;;1906557;75;20132;-78
2021/06/16 12:55:25;;;;;;;3.90;2.50;;;;;;;;;;1905979;75;20097;-78
2021/06/16 12:57:55;;;;;;;5.57;2.17;;;;;;;;;;1906332;75;20093;-78
2021/06/16 13:00:26;;;;;;;3.85;2.20;;;;;;;;;;1906182;75;20093;-81
2021/06/16 13:02:54;;;;;;;4.70;2.35;;;;;;;;;;1905851;75;20107;-80
2021/06/16 13:05:27;;;;;;;7.38;2.47;;;;;;;;;;1906039;75;20093;-80
2021/06/16 13:07:55;;;;;;;4.10;2.30;;;;;;;;;;1905807;75;20160;-79
2021/06/16 13:10:33;;;;;;;5.00;2.20;;;;;;;;;;1906096;75;20078;-77
2021/06/16 13:13:03;;;;;;;3.60;2.47;;;;;;;;;;1902947;75;20129;-79
2021/06/16 13:15:46;;;;;;;4.07;2.33;;;;;;;;;;1906167;75;20152;-79
2021/06/16 13:18:25;;;;;;;4.13;2.30;;;;;;;;;;1906441;75;20089;-79
2021/06/16 13:23:20;;;;;;;3.90;2.35;;;;;;;;;;1904327;67;20096;-82
2021/06/16 13:25:51;;;;;;;4.38;2.40;;;;;;;;;;1904944;75;20147;-82
2021/06/16 13:28:23;;;;;;;3.60;2.20;;;;;;;;;;1904890;75;20093;-84
2021/06/16 13:30:50;;;;;;;4.45;2.15;;;;;;;;;;1904860;75;20093;-84
2021/06/16 13:33:28;;;;;;;4.63;2.20;;;;;;;;;;1905408;75;20093;-84
2021/06/16 13:35:54;;;;;;;4.95;2.47;;;;;;;;;;1904956;75;20097;-83
2021/06/16 13:45:12;;;;;;;4.77;2.30;;;;;;;;;;1899133;75;20514;-84
2021/06/16 13:47:40;;;;;;;3.05;1.80;;;;;;;;;;1904718;75;20154;-83
2021/06/16 13:50:10;;;;;;;5.50;2.28;;;;;;;;;;1904573;75;20134;-83
2021/06/16 13:52:37;;;;;;;4.32;2.08;;;;;;;;;;1904363;75;20115;-83
2021/06/16 13:55:06;;;;;;;3.65;1.83;;;;;;;;;;1904445;75;20097;-83
2021/06/16 13:57:33;;;;;;;3.45;2.03;;;;;;;;;;1904691;75;20088;-83
2021/06/16 13:59:59;;;;;;;4.32;2.53;;;;;;;;;;1904568;75;20097;-84
2021/06/16 14:02:29;;;;;;;3.60;2.10;;;;;;;;;;1904449;75;20093;-83
2021/06/16 14:04:57;;;;;;;5.03;2.33;;;;;;;;;;1905323;75;20085;-82
2021/06/16 14:07:24;;;;;;;3.92;2.03;;;;;;;;;;1905254;75;20097;-82
2021/06/16 14:09:52;;;;;;;3.83;2.05;;;;;;;;;;1904598;75;20089;-84
2021/06/16 14:12:20;;;;;;;3.23;1.70;;;;;;;;;;1904799;75;20097;-83
2021/06/16 14:14:47;;;;;;;5.80;2.45;;;;;;;;;;1904627;75;20462;-83
2021/06/16 14:17:14;;;;;;;3.92;2.00;;;;;;;;;;1904730;75;20085;-83
2021/06/16 14:19:43;;;;;;;4.03;2.30;;;;;;;;;;1905040;75;20481;-83
2021/06/16 14:22:11;;;;;;;4.80;2.33;;;;;;;;;;1905842;67;20096;-84
2021/06/16 14:24:39;;;;;;;4.05;2.33;;;;;;;;;;1905347;75;20096;-84
2021/06/16 14:27:08;;;;;;;8.52;2.42;;;;;;;;;;1905623;75;20140;-85
2021/06/16 14:29:35;;;;;;;4.85;2.38;;;;;;;;;;1906080;75;20107;-84
2021/06/16 14:32:02;;;;;;;4.63;2.65;;;;;;;;;;1906849;75;20719;-82
2021/06/16 14:34:29;;;;;;;3.05;2.10;;;;;;;;;;1905620;75;20089;-83
2021/06/16 14:36:57;;;;;;;2.72;1.70;;;;;;;;;;1905747;75;20088;-85
2021/06/16 14:39:24;;;;;;;3.78;2.35;;;;;;;;;;1905519;75;20093;-84
2021/06/16 14:41:51;;;;;;;4.32;2.03;;;;;;;;;;1905413;75;20093;-83
2021/06/16 14:44:18;;;;;;;4.97;1.98;;;;;;;;;;1905779;75;20153;-84
2021/06/16 14:46:45;;;;;;;4.85;2.25;;;;;;;;;;1905897;75;20107;-84
2021/06/16 14:49:12;;;;;;;4.85;2.50;;;;;;;;;;1906211;75;20606;-85
2021/06/16 14:51:39;;;;;;;6.07;2.40;;;;;;;;;;1905767;75;20093;-83
2021/06/16 14:54:13;;;;;;;3.35;2.35;;;;;;;;;;1906052;75;20089;-84
2021/06/16 14:56:44;;;;;;;3.25;2.00;;;;;;;;;;1905751;75;20116;-84
2021/06/16 14:59:11;;;;;;;4.25;2.58;;;;;;;;;;1906056;75;20234;-84
2021/06/16 15:01:42;;;;;;;3.72;2.20;;;;;;;;;;1905763;75;20093;-84
2021/06/16 15:04:09;;;;;;;4.93;2.35;;;;;;;;;;1905361;75;20096;-84
2021/06/16 15:06:45;;;;;;;5.07;2.30;;;;;;;;;;1905429;75;20089;-86
2021/06/16 15:09:14;;;;;;;2.63;2.00;;;;;;;;;;1905807;75;20092;-86
2021/06/16 15:11:40;;;;;;;2.78;2.03;;;;;;;;;;1905734;75;20147;-84
2021/06/16 15:14:07;;;;;;;4.65;2.10;;;;;;;;;;1905630;75;20081;-83
2021/06/16 15:16:34;;;;;;;3.75;2.40;;;;;;;;;;1905867;75;20095;-83
2021/06/16 15:19:01;;;;;;;3.10;1.90;;;;;;;;;;1905610;75;20096;-83
2021/06/16 15:21:29;;;;;;;2.80;2.10;;;;;;;;;;1905670;67;20089;-84
2021/06/16 15:23:56;;;;;;;3.10;2.00;;;;;;;;;;1905170;75;20103;-84
2021/06/16 15:26:28;;;;;;;3.65;2.13;;;;;;;;;;1905844;75;20116;-84
2021/06/16 15:29:00;;;;;;;2.70;1.80;;;;;;;;;;1907355;75;20100;-86
2021/06/16 15:31:27;;;;;;;4.65;2.25;;;;;;;;;;1911567;75;20108;-84
2021/06/16 15:33:56;;;;;;;5.18;2.55;;;;;;;;;;1911284;75;20121;-86
2021/06/16 15:36:23;;;;;;;4.13;2.00;;;;;;;;;;1908268;75;20092;-86